createdAt,value
2018-08-19T00:00:25.576Z,17.00
2018-08-19T00:02:59.255Z,16.07
2018-08-19T00:05:29.540Z,15.03
2018-08-19T00:07:59.785Z,16.83
2018-08-19T00:11:12.433Z,14.57
2018-08-19T00:13:42.633Z,14.87
2018-08-19T00:16:13.011Z,15.10
2018-08-19T00:18:43.211Z,14.10
2018-08-19T00:21:13.433Z,16.13
2018-08-19T00:23:49.664Z,15.70
2018-08-19T00:26:19.931Z,15.07
2018-08-19T00:28:50.092Z,15.40
2018-08-19T00:31:20.240Z,15.40
2018-08-19T00:33:50.370Z,13.70
2018-08-19T00:36:33.270Z,14.73
2018-08-19T00:39:04.053Z,14.80
2018-08-19T00:41:34.172Z,13.03
2018-08-19T00:44:04.486Z,14.70
2018-08-19T00:46:34.754Z,15.70
2018-08-19T00:49:04.898Z,15.40
2018-08-19T00:51:35.082Z,12.93
2018-08-19T00:54:05.384Z,15.00
2018-08-19T00:56:36.764Z,15.37
2018-08-19T00:59:09.356Z,13.10
2018-08-19T01:01:39.580Z,13.23
2018-08-19T01:04:11.099Z,14.57
2018-08-19T01:06:46.267Z,13.60
2018-08-19T01:09:16.587Z,14.03
2018-08-19T01:11:46.871Z,14.53
2018-08-19T01:14:17.180Z,13.07
2018-08-19T01:16:47.358Z,14.20
2018-08-19T01:19:18.645Z,12.43
2018-08-19T01:21:50.707Z,15.30
2018-08-19T01:24:21.250Z,14.10
2018-08-19T01:26:51.370Z,15.07
2018-08-19T01:29:35.881Z,13.80
2018-08-19T01:32:12.312Z,13.17
2018-08-19T01:34:45.621Z,12.87
2018-08-19T01:37:16.228Z,13.00
2018-08-19T01:39:46.416Z,14.63
2018-08-19T01:42:16.561Z,15.63
2018-08-19T01:44:46.671Z,14.77
2018-08-19T01:47:16.770Z,13.37
2018-08-19T01:49:46.996Z,13.10
2018-08-19T01:52:17.071Z,14.10
2018-08-19T01:54:47.219Z,13.50
2018-08-19T01:57:17.360Z,13.90
2018-08-19T01:59:47.512Z,13.37
2018-08-19T02:02:17.681Z,13.80
2018-08-19T02:04:52.906Z,13.00
2018-08-19T02:07:23.070Z,11.97
2018-08-19T02:10:02.712Z,13.80
2018-08-19T02:12:38.569Z,11.93
2018-08-19T02:15:10.284Z,12.70
2018-08-19T02:17:46.191Z,13.93
2018-08-19T02:20:16.339Z,13.10
2018-08-19T02:22:51.849Z,12.27
2018-08-19T02:25:21.992Z,12.63
2018-08-19T02:27:52.126Z,12.77
2018-08-19T02:30:22.288Z,13.80
2018-08-19T02:32:55.760Z,12.30
2018-08-19T02:35:25.969Z,12.40
2018-08-19T02:37:56.133Z,13.33
2018-08-19T02:40:30.741Z,14.77
2018-08-19T02:43:01.002Z,13.67
2018-08-19T02:45:31.227Z,13.30
2018-08-19T02:48:01.398Z,12.87
2018-08-19T02:50:31.528Z,13.80
2018-08-19T02:53:01.613Z,12.13
2018-08-19T02:55:31.874Z,13.40
2018-08-19T02:58:06.943Z,14.10
2018-08-19T03:00:37.017Z,12.27
2018-08-19T03:03:07.306Z,12.20
2018-08-19T03:05:38.492Z,12.20
2018-08-19T03:08:08.619Z,12.73
2018-08-19T03:10:38.831Z,12.53
2018-08-19T03:13:08.935Z,12.30
2018-08-19T03:15:39.102Z,12.53
2018-08-19T03:18:09.220Z,11.87
2018-08-19T03:20:39.490Z,11.93
2018-08-19T03:23:10.715Z,12.23
2018-08-19T03:25:40.805Z,12.00
2018-08-19T03:28:10.993Z,13.30
2018-08-19T03:30:47.979Z,13.43
2018-08-19T03:33:18.001Z,12.80
2018-08-19T03:35:48.112Z,13.30
2018-08-19T03:38:18.244Z,12.70
2018-08-19T03:40:48.357Z,12.73
2018-08-19T03:43:18.523Z,11.33
2018-08-19T03:45:48.627Z,11.13
2018-08-19T03:48:18.709Z,10.33
2018-08-19T03:50:48.810Z,12.70
2018-08-19T03:53:18.822Z,11.00
2018-08-19T03:55:48.946Z,10.77
2018-08-19T03:58:19.062Z,11.57
2018-08-19T04:00:49.204Z,11.17
2018-08-19T04:03:25.141Z,11.23
2018-08-19T04:05:58.835Z,10.17
2018-08-19T04:08:40.284Z,11.60
2018-08-19T04:11:10.403Z,10.80
2018-08-19T04:13:41.594Z,10.00
2018-08-19T04:16:12.747Z,9.97
2018-08-19T04:18:45.265Z,11.33
2018-08-19T04:21:16.735Z,10.50
2018-08-19T04:23:49.451Z,10.70
2018-08-19T04:26:19.644Z,8.33
2018-08-19T04:28:49.780Z,10.80
2018-08-19T04:31:24.096Z,10.63
2018-08-19T04:33:56.327Z,9.93
2018-08-19T04:36:26.629Z,9.53
2018-08-19T04:38:57.266Z,10.00
2018-08-19T04:41:27.490Z,10.00
2018-08-19T04:43:57.635Z,11.97
2018-08-19T04:46:27.818Z,9.90
2018-08-19T04:48:57.896Z,10.37
2018-08-19T04:51:28.320Z,11.60
2018-08-19T04:53:58.403Z,10.27
2018-08-19T04:56:28.518Z,10.87
2018-08-19T04:58:58.669Z,10.53
2018-08-19T05:01:28.805Z,9.90
2018-08-19T05:03:58.912Z,9.63
2018-08-19T05:06:29.037Z,9.20
2018-08-19T05:08:59.203Z,9.40
2018-08-19T05:11:29.407Z,10.47
2018-08-19T05:14:00.386Z,9.00
2018-08-19T05:16:30.516Z,9.37
2018-08-19T05:19:05.230Z,10.00
2018-08-19T05:21:35.440Z,10.07
2018-08-19T05:24:05.531Z,9.70
2018-08-19T05:26:35.600Z,9.90
2018-08-19T05:29:11.473Z,10.60
2018-08-19T05:31:48.074Z,9.90
2018-08-19T05:34:22.222Z,10.47
2018-08-19T05:36:52.615Z,9.30
2018-08-19T05:39:22.789Z,8.80
2018-08-19T05:42:08.087Z,9.30
2018-08-19T05:44:39.328Z,9.63
2018-08-19T05:47:15.727Z,9.43
2018-08-19T05:49:46.809Z,8.00
2018-08-19T05:52:19.958Z,8.90
2018-08-19T05:55:07.502Z,9.17
2018-08-19T05:57:37.678Z,9.17
2018-08-19T06:00:13.100Z,8.10
2018-08-19T06:02:43.863Z,8.60
2018-08-19T06:05:14.055Z,7.80
2018-08-19T06:07:44.279Z,6.77
2018-08-19T06:10:14.359Z,7.37
2018-08-19T06:12:44.495Z,6.60
2018-08-19T06:15:14.709Z,7.70
2018-08-19T06:17:44.909Z,7.43
2018-08-19T06:20:15.077Z,6.90
2018-08-19T06:22:45.298Z,6.87
2018-08-19T06:25:15.501Z,7.90
2018-08-19T06:27:47.629Z,7.40
2018-08-19T06:30:18.840Z,6.10
2018-08-19T06:32:49.082Z,6.83
2018-08-19T06:35:19.287Z,7.13
2018-08-19T06:37:49.567Z,6.27
2018-08-19T06:40:21.819Z,5.90
2018-08-19T06:42:52.033Z,6.33
2018-08-19T06:45:22.243Z,6.40
2018-08-19T06:47:52.476Z,5.80
2018-08-19T06:50:25.642Z,7.20
2018-08-19T06:52:56.640Z,6.60
2018-08-19T06:55:26.925Z,6.10
2018-08-19T06:57:59.028Z,5.73
2018-08-19T07:00:30.199Z,5.80
2018-08-19T07:03:03.209Z,6.00
2018-08-19T07:05:34.133Z,5.53
2018-08-19T07:08:04.421Z,5.13
2018-08-19T07:10:39.451Z,5.50
2018-08-19T07:13:13.276Z,5.60
2018-08-19T07:15:44.697Z,5.90
2018-08-19T07:18:16.205Z,4.73
2018-08-19T07:20:46.386Z,4.67
2018-08-19T07:23:16.589Z,5.00
2018-08-19T07:25:47.046Z,5.07
2018-08-19T07:28:18.337Z,5.03
2018-08-19T07:30:48.488Z,4.53
2018-08-19T07:33:18.638Z,4.60
2018-08-19T07:35:48.694Z,4.53
2018-08-19T07:38:18.806Z,4.47
2018-08-19T07:40:48.902Z,4.60
2018-08-19T07:43:19.012Z,4.57
2018-08-19T07:45:49.096Z,4.73
2018-08-19T07:48:19.253Z,6.00
2018-08-19T07:50:49.391Z,4.87
2018-08-19T07:53:19.535Z,5.70
2018-08-19T07:55:49.628Z,5.57
2018-08-19T07:58:34.855Z,4.60
2018-08-19T08:01:05.026Z,4.80
2018-08-19T08:03:35.179Z,4.20
2018-08-19T08:06:05.371Z,4.47
2018-08-19T08:08:35.526Z,4.93
2018-08-19T08:11:05.845Z,4.10
2018-08-19T08:13:35.996Z,4.63
2018-08-19T08:16:06.079Z,4.63
2018-08-19T08:18:36.302Z,4.90
2018-08-19T08:21:12.652Z,4.20
2018-08-19T08:23:43.485Z,4.47
2018-08-19T08:26:13.681Z,4.50
2018-08-19T08:28:53.739Z,5.17
2018-08-19T08:31:23.869Z,4.50
2018-08-19T08:33:54.978Z,4.90
2018-08-19T08:36:25.117Z,5.00
2018-08-19T08:38:55.245Z,4.97
2018-08-19T08:41:25.376Z,5.40
2018-08-19T08:43:55.430Z,5.07
2018-08-19T08:46:25.541Z,5.47
2018-08-19T08:48:55.957Z,6.17
2018-08-19T08:51:26.102Z,6.13
2018-08-19T08:53:56.563Z,5.70
2018-08-19T08:56:26.812Z,5.20
2018-08-19T08:58:57.066Z,5.80
2018-08-19T09:01:27.315Z,6.30
2018-08-19T09:03:57.533Z,5.20
2018-08-19T09:06:28.694Z,5.33
2018-08-19T09:08:59.227Z,4.57
2018-08-19T09:11:29.429Z,5.87
2018-08-19T09:13:59.665Z,5.10
2018-08-19T09:16:29.803Z,5.03
2018-08-19T09:19:00.062Z,5.23
2018-08-19T09:21:30.219Z,5.50
2018-08-19T09:24:00.321Z,5.67
2018-08-19T09:26:30.454Z,6.47
2018-08-19T09:29:00.575Z,5.40
2018-08-19T09:31:30.815Z,5.80
2018-08-19T09:34:00.926Z,5.90
2018-08-19T09:36:31.169Z,5.57
2018-08-19T09:39:01.425Z,5.33
2018-08-19T09:41:31.532Z,5.70
2018-08-19T09:44:01.631Z,6.07
2018-08-19T09:46:31.753Z,6.30
2018-08-19T09:49:01.951Z,5.93
2018-08-19T09:51:32.105Z,5.03
2018-08-19T09:54:02.254Z,6.03
2018-08-19T09:56:37.462Z,5.07
2018-08-19T09:59:07.566Z,6.70
2018-08-19T10:01:46.603Z,5.43
2018-08-19T10:04:21.746Z,5.40
2018-08-19T10:07:00.647Z,5.27
2018-08-19T10:09:31.419Z,6.10
2018-08-19T10:12:01.490Z,6.50
2018-08-19T10:14:31.626Z,6.57
2018-08-19T10:17:01.745Z,6.27
2018-08-19T10:19:31.980Z,6.37
2018-08-19T10:22:02.170Z,6.13
2018-08-19T10:24:33.467Z,6.77
2018-08-19T10:27:07.969Z,6.87
2018-08-19T10:29:38.244Z,6.20
2018-08-19T10:32:08.435Z,6.60
2018-08-19T10:34:38.551Z,6.90
2018-08-19T10:37:08.842Z,6.60
2018-08-19T10:39:39.049Z,5.80
2018-08-19T10:42:22.175Z,6.80
2018-08-19T10:44:53.379Z,8.97
2018-08-19T10:47:23.513Z,7.70
2018-08-19T10:49:59.722Z,6.47
2018-08-19T10:52:31.417Z,6.27
2018-08-19T10:55:02.489Z,7.40
2018-08-19T10:57:32.710Z,6.90
2018-08-19T11:00:02.908Z,6.97
2018-08-19T11:02:33.134Z,7.30
2018-08-19T11:05:03.330Z,6.03
2018-08-19T11:07:33.435Z,7.10
2018-08-19T11:10:26.364Z,6.50
2018-08-19T11:12:57.957Z,6.17
2018-08-19T11:15:42.763Z,7.20
2018-08-19T11:18:24.862Z,6.70
2018-08-19T11:20:59.423Z,6.27
2018-08-19T11:23:29.655Z,7.23
2018-08-19T11:26:00.024Z,6.33
2018-08-19T11:28:38.596Z,6.47
2018-08-19T11:31:17.049Z,7.03
2018-08-19T11:33:47.301Z,8.10
2018-08-19T11:36:17.692Z,6.70
2018-08-19T11:38:51.889Z,6.70
2018-08-19T11:41:22.166Z,7.67
2018-08-19T11:43:52.646Z,7.60
2018-08-19T11:46:22.881Z,7.70
2018-08-19T11:48:58.188Z,7.00
2018-08-19T11:51:44.927Z,8.17
2018-08-19T11:54:16.070Z,7.60
2018-08-19T11:56:59.407Z,6.37
2018-08-19T11:59:33.521Z,7.77
2018-08-19T12:02:03.815Z,6.80
2018-08-19T12:04:33.995Z,7.67
2018-08-19T12:07:04.367Z,8.50
2018-08-19T12:09:34.611Z,6.63
2018-08-19T12:12:05.369Z,6.93
2018-08-19T12:14:37.362Z,7.10
2018-08-19T12:17:11.376Z,7.00
2018-08-19T12:19:43.639Z,6.80
2018-08-19T12:22:13.821Z,7.33
2018-08-19T12:24:45.832Z,6.60
2018-08-19T12:27:18.312Z,6.90
2018-08-19T12:29:48.472Z,6.70
2018-08-19T12:32:24.578Z,7.27
2018-08-19T12:35:02.044Z,6.70
2018-08-19T12:37:33.444Z,6.63
2018-08-19T12:40:03.582Z,8.83
2018-08-19T12:42:38.929Z,7.80
2018-08-19T12:45:09.614Z,6.33
2018-08-19T12:47:39.806Z,6.90
2018-08-19T12:50:14.426Z,6.70
2018-08-19T12:52:44.764Z,7.37
2018-08-19T12:55:17.234Z,7.93
2018-08-19T12:57:51.587Z,6.90
2018-08-19T13:00:26.818Z,7.40
2018-08-19T13:02:57.136Z,6.53
2018-08-19T13:05:27.388Z,7.20
2018-08-19T13:07:57.607Z,6.60
2018-08-19T13:10:37.283Z,6.43
2018-08-19T13:13:07.777Z,6.60
2018-08-19T13:15:37.889Z,7.33
2018-08-19T13:18:08.115Z,6.60
2018-08-19T13:20:38.320Z,5.80
2018-08-19T13:23:08.767Z,7.57
2018-08-19T13:25:38.879Z,7.00
2018-08-19T13:28:09.116Z,7.57
2018-08-19T13:30:39.178Z,7.27
2018-08-19T13:33:09.360Z,7.43
2018-08-19T13:35:39.485Z,7.07
2018-08-19T13:38:09.752Z,7.17
2018-08-19T13:40:39.943Z,7.33
2018-08-19T13:43:10.125Z,6.63
2018-08-19T13:45:40.236Z,6.37
2018-08-19T13:48:10.690Z,7.00
2018-08-19T13:50:40.865Z,6.90
2018-08-19T13:53:11.015Z,7.30
2018-08-19T13:55:41.231Z,7.00
2018-08-19T13:58:11.495Z,8.53
2018-08-19T14:00:41.591Z,6.20
2018-08-19T14:03:11.731Z,5.87
2018-08-19T14:05:41.870Z,7.57
2018-08-19T14:08:12.042Z,6.77
2018-08-19T14:10:42.235Z,7.03
2018-08-19T14:13:12.430Z,6.77
2018-08-19T14:15:42.733Z,5.90
2018-08-19T14:18:12.973Z,6.43
2018-08-19T14:20:43.093Z,7.00
2018-08-19T14:23:13.230Z,7.70
2018-08-19T14:25:43.377Z,6.20
2018-08-19T14:28:13.544Z,6.47
2018-08-19T14:30:43.803Z,7.60
2018-08-19T14:33:13.950Z,7.20
2018-08-19T14:35:44.086Z,6.70
2018-08-19T14:38:14.353Z,6.97
2018-08-19T14:40:44.459Z,6.97
2018-08-19T14:43:14.677Z,7.10
2018-08-19T14:45:45.000Z,7.93
2018-08-19T14:48:15.110Z,7.23
2018-08-19T14:50:45.647Z,6.80
2018-08-19T14:53:15.791Z,7.80
2018-08-19T14:55:45.957Z,7.43
2018-08-19T14:58:16.179Z,7.27
2018-08-19T15:00:46.295Z,7.87
2018-08-19T15:03:16.456Z,7.17
2018-08-19T15:06:01.233Z,7.37
2018-08-19T15:08:32.129Z,6.80
2018-08-19T15:11:05.291Z,7.23
2018-08-19T15:13:35.838Z,7.73
2018-08-19T15:16:06.070Z,8.60
2018-08-19T15:18:36.295Z,6.23
2018-08-19T15:21:06.412Z,7.13
2018-08-19T15:23:36.592Z,6.83
2018-08-19T15:26:06.787Z,7.37
2018-08-19T15:28:39.203Z,7.00
2018-08-19T15:31:14.541Z,7.37
2018-08-19T15:33:44.710Z,6.40
2018-08-19T15:36:14.904Z,6.33
2018-08-19T15:38:45.017Z,7.03
2018-08-19T15:41:15.657Z,7.30
2018-08-19T15:43:45.811Z,6.90
2018-08-19T15:46:16.118Z,7.23
2018-08-19T15:48:51.143Z,6.63
2018-08-19T15:51:21.277Z,7.30
2018-08-19T15:53:51.438Z,7.87
2018-08-19T15:56:21.684Z,6.60
2018-08-19T15:58:51.888Z,8.50
2018-08-19T16:01:30.076Z,7.50
2018-08-19T16:04:06.142Z,7.67
2018-08-19T16:06:36.362Z,7.00
2018-08-19T16:09:10.706Z,6.80
2018-08-19T16:11:40.831Z,6.60
2018-08-19T16:14:17.839Z,6.57
2018-08-19T16:16:48.063Z,6.17
2018-08-19T16:19:18.399Z,7.07
2018-08-19T16:21:53.070Z,7.23
2018-08-19T16:24:23.464Z,6.47
2018-08-19T16:26:53.846Z,7.60
2018-08-19T16:29:24.133Z,6.30
2018-08-19T16:31:54.439Z,8.10
2018-08-19T16:34:24.501Z,7.57
2018-08-19T16:36:54.615Z,7.27
2018-08-19T16:39:24.858Z,7.90
2018-08-19T16:41:54.873Z,7.50
2018-08-19T16:44:25.105Z,6.90
2018-08-19T16:46:55.409Z,6.60
2018-08-19T16:49:25.582Z,6.30
2018-08-19T16:51:55.749Z,6.87
2018-08-19T16:54:25.989Z,6.77
2018-08-19T16:56:56.153Z,6.60
2018-08-19T16:59:26.298Z,7.27
2018-08-19T17:01:56.418Z,6.50
2018-08-19T17:04:26.710Z,7.43
2018-08-19T17:06:56.792Z,6.87
2018-08-19T17:09:27.014Z,6.13
2018-08-19T17:11:57.072Z,7.67
2018-08-19T17:14:27.237Z,7.63
2018-08-19T17:16:57.367Z,6.47
2018-08-19T17:19:27.532Z,7.07
2018-08-19T17:21:57.711Z,6.67
2018-08-19T17:24:27.883Z,6.30
2018-08-19T17:27:03.111Z,6.30
2018-08-19T17:29:33.339Z,6.40
2018-08-19T17:32:03.422Z,6.87
2018-08-19T17:34:33.573Z,7.63
2018-08-19T17:37:03.806Z,7.43
2018-08-19T17:39:33.919Z,7.80
2018-08-19T17:42:04.156Z,7.40
2018-08-19T17:44:34.338Z,7.80
2018-08-19T17:47:04.598Z,8.23
2018-08-19T17:49:36.031Z,8.40
2018-08-19T17:52:06.282Z,8.00
2018-08-19T17:54:36.417Z,7.43
2018-08-19T17:57:06.641Z,7.40
2018-08-19T17:59:36.907Z,6.77
2018-08-19T18:02:07.336Z,7.77
2018-08-19T18:04:42.605Z,7.40
2018-08-19T18:07:15.097Z,7.30
2018-08-19T18:09:49.393Z,7.27
2018-08-19T18:12:21.967Z,7.90
2018-08-19T18:14:52.200Z,6.90
2018-08-19T18:17:22.433Z,7.70
2018-08-19T18:19:52.635Z,7.13
2018-08-19T18:22:23.013Z,7.17
2018-08-19T18:25:03.100Z,7.30
2018-08-19T18:27:33.284Z,8.40
2018-08-19T18:30:03.424Z,7.13
2018-08-19T18:32:33.566Z,7.50
2018-08-19T18:35:03.745Z,7.50
2018-08-19T18:37:33.877Z,7.30
2018-08-19T18:40:04.141Z,7.93
2018-08-19T18:42:40.379Z,8.80
2018-08-19T18:45:12.965Z,7.37
2018-08-19T18:47:51.429Z,8.07
2018-08-19T18:50:25.555Z,7.30
2018-08-19T18:52:55.869Z,6.80
2018-08-19T18:55:26.182Z,7.70
2018-08-19T18:57:57.393Z,7.20
2018-08-19T19:00:28.295Z,9.00
2018-08-19T19:03:01.448Z,7.40
2018-08-19T19:05:41.665Z,7.70
2018-08-19T19:08:12.906Z,6.90
2018-08-19T19:11:06.050Z,7.97
2018-08-19T19:13:36.749Z,8.30
2018-08-19T19:16:06.977Z,7.33
2018-08-19T19:18:37.079Z,7.03
2018-08-19T19:21:07.575Z,7.33
2018-08-19T19:23:40.067Z,7.77
2018-08-19T19:26:10.912Z,7.77
2018-08-19T19:28:41.045Z,8.03
2018-08-19T19:31:17.363Z,7.70
2018-08-19T19:33:47.455Z,7.00
2018-08-19T19:36:20.223Z,7.70
2018-08-19T19:38:57.197Z,6.70
2018-08-19T19:41:31.740Z,8.60
2018-08-19T19:44:24.483Z,8.40
2018-08-19T19:46:55.042Z,8.50
2018-08-19T19:49:25.096Z,8.43
2018-08-19T19:52:03.934Z,7.90
2018-08-19T19:54:34.944Z,8.93
2018-08-19T19:57:05.058Z,8.20
2018-08-19T19:59:35.674Z,8.03
2018-08-19T20:02:05.879Z,8.57
2018-08-19T20:04:37.068Z,10.17
2018-08-19T20:07:07.192Z,8.30
2018-08-19T20:09:37.452Z,9.53
2018-08-19T20:12:14.325Z,8.87
2018-08-19T20:14:51.510Z,10.13
2018-08-19T20:17:22.260Z,10.10
2018-08-19T20:19:52.427Z,9.73
2018-08-19T20:22:22.716Z,9.63
2018-08-19T20:24:53.038Z,10.53
2018-08-19T20:27:23.193Z,9.87
2018-08-19T20:29:54.943Z,11.00
2018-08-19T20:32:25.143Z,9.63
2018-08-19T20:34:55.280Z,10.43
2018-08-19T20:37:27.184Z,10.30
2018-08-19T20:39:57.243Z,9.90
2018-08-19T20:42:27.385Z,10.63
2018-08-19T20:44:57.430Z,10.10
2018-08-19T20:47:27.527Z,10.70
2018-08-19T20:49:57.679Z,11.00
2018-08-19T20:52:45.512Z,9.70
2018-08-19T20:55:15.914Z,10.60
2018-08-19T20:57:46.505Z,10.10
2018-08-19T21:00:16.720Z,9.73
2018-08-19T21:02:46.864Z,10.83
2018-08-19T21:05:16.977Z,10.17
2018-08-19T21:07:47.129Z,10.63
2018-08-19T21:10:17.315Z,10.10
2018-08-19T21:12:47.449Z,10.50
2018-08-19T21:15:22.984Z,9.40
2018-08-19T21:17:53.113Z,11.40
2018-08-19T21:20:23.196Z,10.53
2018-08-19T21:22:54.399Z,9.83
2018-08-19T21:25:24.677Z,10.97
2018-08-19T21:27:54.784Z,11.87
2018-08-19T21:30:25.173Z,9.90
2018-08-19T21:32:56.345Z,11.13
2018-08-19T21:35:26.696Z,9.90
2018-08-19T21:37:56.824Z,10.17
2018-08-19T21:40:33.943Z,10.73
2018-08-19T21:43:04.055Z,10.70
2018-08-19T21:45:34.672Z,10.30
2018-08-19T21:48:05.149Z,10.77
2018-08-19T21:50:35.256Z,10.77
2018-08-19T21:53:09.204Z,10.17
2018-08-19T21:55:42.390Z,11.67
2018-08-19T21:58:12.605Z,10.20
2018-08-19T22:01:04.475Z,11.70
2018-08-19T22:03:39.797Z,9.90
2018-08-19T22:06:10.238Z,12.13
2018-08-19T22:08:40.307Z,10.83
2018-08-19T22:11:10.485Z,11.60
2018-08-19T22:13:40.630Z,10.60
2018-08-19T22:16:10.716Z,10.37
2018-08-19T22:18:40.918Z,11.40
2018-08-19T22:21:18.433Z,10.43
2018-08-19T22:23:49.817Z,10.37
2018-08-19T22:26:21.030Z,10.20
2018-08-19T22:29:10.763Z,10.10
2018-08-19T22:31:40.949Z,10.27
2018-08-19T22:34:11.106Z,11.93
2018-08-19T22:36:41.193Z,10.33
2018-08-19T22:39:11.526Z,10.80
2018-08-19T22:41:41.590Z,9.33
2018-08-19T22:44:11.726Z,9.13
2018-08-19T22:46:41.838Z,9.77
2018-08-19T22:49:11.977Z,11.13
2018-08-19T22:51:42.196Z,10.30
2018-08-19T22:54:12.339Z,10.27
2018-08-19T22:56:42.404Z,10.10
2018-08-19T22:59:12.483Z,9.20
2018-08-19T23:01:49.290Z,9.97
2018-08-19T23:04:19.466Z,10.20
2018-08-19T23:06:49.576Z,9.30
2018-08-19T23:09:19.690Z,11.40
2018-08-19T23:11:49.747Z,11.10
2018-08-19T23:14:36.502Z,9.10
2018-08-19T23:17:09.447Z,10.00
2018-08-19T23:19:39.650Z,9.70
2018-08-19T23:22:09.785Z,11.03
2018-08-19T23:24:39.948Z,9.97
2018-08-19T23:27:10.021Z,10.10
2018-08-19T23:29:40.161Z,10.30
2018-08-19T23:32:10.394Z,11.57
2018-08-19T23:34:40.546Z,11.07
2018-08-19T23:37:17.279Z,9.83
2018-08-19T23:39:47.371Z,10.03
2018-08-19T23:42:17.409Z,10.10
2018-08-19T23:44:47.484Z,11.13
2018-08-19T23:47:18.233Z,9.80
2018-08-19T23:49:48.322Z,10.27
2018-08-19T23:52:18.410Z,9.37
2018-08-19T23:54:48.618Z,10.10
2018-08-19T23:57:18.785Z,11.00
2018-08-19T23:59:48.921Z,10.63
